createdAt,value
2022-09-15T00:01:02.847Z,8.30
2022-09-15T00:02:18.581Z,7.80
2022-09-15T00:03:25.757Z,5.80
2022-09-15T00:04:32.325Z,6.00
2022-09-15T00:05:38.149Z,6.20
2022-09-15T00:06:45.647Z,6.00
2022-09-15T00:07:54.165Z,5.70
2022-09-15T00:09:00.346Z,8.80
2022-09-15T00:10:07.902Z,8.30
2022-09-15T00:11:24.967Z,7.70
2022-09-15T00:12:32.024Z,6.10
2022-09-15T00:13:38.654Z,7.00
2022-09-15T00:14:45.484Z,8.20
2022-09-15T00:15:53.623Z,5.50
2022-09-15T00:16:59.925Z,7.70
2022-09-15T00:18:09.253Z,6.30
2022-09-15T00:19:15.675Z,7.70
2022-09-15T00:20:23.200Z,7.60
2022-09-15T00:21:31.840Z,6.00
2022-09-15T00:22:40.947Z,7.50
2022-09-15T00:23:48.546Z,5.90
2022-09-15T00:24:55.648Z,7.70
2022-09-15T00:26:02.252Z,9.80
2022-09-15T00:27:07.930Z,8.50
2022-09-15T00:28:14.953Z,8.00
2022-09-15T00:29:50.440Z,7.30
2022-09-15T00:31:15.211Z,7.80
2022-09-15T00:34:16.303Z,8.70
2022-09-15T00:35:32.305Z,6.90
2022-09-15T00:36:50.274Z,7.00
2022-09-15T00:38:13.606Z,7.20
2022-09-15T00:43:47.285Z,7.60
2022-09-15T00:45:01.703Z,6.60
2022-09-15T00:46:07.547Z,10.30
2022-09-15T00:47:19.777Z,7.90
2022-09-15T00:48:29.774Z,10.40
2022-09-15T00:49:36.661Z,7.30
2022-09-15T00:50:46.468Z,9.70
2022-09-15T00:51:55.366Z,6.80
2022-09-15T00:53:03.006Z,6.20
2022-09-15T00:54:12.420Z,6.30
2022-09-15T00:55:30.980Z,6.60
2022-09-15T00:56:39.957Z,6.80
2022-09-15T00:58:11.245Z,7.30
2022-09-15T00:59:23.462Z,6.60
2022-09-15T01:00:30.300Z,7.50
2022-09-15T01:01:38.126Z,9.40
2022-09-15T01:02:46.227Z,9.00
2022-09-15T01:03:53.554Z,8.00
2022-09-15T01:05:02.822Z,6.60
2022-09-15T01:06:17.554Z,7.10
2022-09-15T01:07:31.543Z,13.20
2022-09-15T01:09:00.264Z,8.30
2022-09-15T01:10:44.771Z,6.70
2022-09-15T01:12:03.998Z,8.30
2022-09-15T01:13:19.038Z,7.20
2022-09-15T01:14:27.025Z,8.10
2022-09-15T01:16:02.397Z,7.40
2022-09-15T01:17:27.518Z,7.70
2022-09-15T01:19:14.598Z,6.60
2022-09-15T01:20:57.805Z,7.70
2022-09-15T01:22:31.532Z,7.10
2022-09-15T01:24:41.321Z,10.80
2022-09-15T01:25:59.256Z,5.80
2022-09-15T01:27:42.213Z,9.40
2022-09-15T01:29:26.429Z,8.50
2022-09-15T01:31:02.751Z,7.10
2022-09-15T01:32:38.212Z,7.20
2022-09-15T01:34:04.887Z,8.00
2022-09-15T01:35:54.524Z,8.20
2022-09-15T01:37:15.871Z,12.50
2022-09-15T01:38:33.416Z,8.30
2022-09-15T01:39:43.198Z,8.80
2022-09-15T01:41:20.616Z,10.60
2022-09-15T01:42:27.206Z,6.80
2022-09-15T01:43:35.950Z,7.60
2022-09-15T01:45:02.928Z,8.50
2022-09-15T01:46:08.769Z,8.10
2022-09-15T01:47:18.065Z,7.90
2022-09-15T01:48:25.930Z,11.80
2022-09-15T01:50:13.154Z,9.00
2022-09-15T01:51:20.485Z,9.30
2022-09-15T01:52:26.480Z,7.30
2022-09-15T01:53:32.745Z,7.90
2022-09-15T01:54:41.302Z,7.90
2022-09-15T01:56:12.722Z,7.30
2022-09-15T01:57:24.713Z,8.90
2022-09-15T01:58:34.038Z,8.90
2022-09-15T01:59:44.165Z,10.00
2022-09-15T02:01:29.518Z,16.00
2022-09-15T02:02:45.885Z,14.50
2022-09-15T02:04:25.942Z,8.60
2022-09-15T02:06:02.447Z,6.90
2022-09-15T02:07:13.271Z,7.70
2022-09-15T02:08:29.871Z,8.00
2022-09-15T02:09:39.812Z,7.20
2022-09-15T02:10:53.132Z,8.50
2022-09-15T02:12:34.211Z,9.60
2022-09-15T02:19:19.133Z,7.60
2022-09-15T02:22:39.169Z,9.40
2022-09-15T02:23:53.696Z,9.10
2022-09-15T02:25:19.195Z,8.80
2022-09-15T02:26:27.317Z,10.10
2022-09-15T02:27:38.449Z,9.00
2022-09-15T02:28:44.779Z,12.80
2022-09-15T02:29:55.129Z,8.70
2022-09-15T02:31:02.292Z,9.70
2022-09-15T02:32:08.590Z,10.10
2022-09-15T02:33:16.068Z,8.90
2022-09-15T02:34:26.646Z,8.20
2022-09-15T02:35:35.454Z,13.70
2022-09-15T02:36:42.079Z,9.20
2022-09-15T02:37:48.180Z,8.60
2022-09-15T02:38:56.945Z,8.30
2022-09-15T02:40:03.646Z,12.30
2022-09-15T02:41:09.413Z,5.90
2022-09-15T02:42:33.753Z,9.80
2022-09-15T02:43:47.107Z,8.10
2022-09-15T02:44:58.563Z,8.80
2022-09-15T02:46:06.667Z,9.00
2022-09-15T02:47:14.114Z,6.70
2022-09-15T02:48:25.791Z,10.50
2022-09-15T02:49:37.630Z,8.50
2022-09-15T02:50:47.303Z,10.50
2022-09-15T02:52:03.061Z,10.00
2022-09-15T02:53:13.860Z,9.50
2022-09-15T02:54:19.825Z,8.80
2022-09-15T02:55:29.793Z,9.90
2022-09-15T02:56:39.891Z,9.90
2022-09-15T02:57:47.376Z,9.90
2022-09-15T02:59:00.097Z,7.90
2022-09-15T03:00:18.352Z,8.10
2022-09-15T03:01:33.322Z,10.70
2022-09-15T03:02:39.956Z,7.80
2022-09-15T03:03:46.052Z,10.20
2022-09-15T03:04:53.144Z,9.00
2022-09-15T03:08:16.035Z,8.70
2022-09-15T03:09:30.082Z,7.40
2022-09-15T03:10:36.021Z,10.50
2022-09-15T03:11:43.426Z,8.10
2022-09-15T03:12:53.884Z,7.70
2022-09-15T03:14:04.648Z,8.40
2022-09-15T03:15:11.059Z,8.80
2022-09-15T03:16:17.540Z,10.20
2022-09-15T03:17:23.690Z,9.90
2022-09-15T03:18:30.122Z,8.40
2022-09-15T03:19:36.435Z,10.30
2022-09-15T03:20:42.716Z,9.60
2022-09-15T03:21:51.623Z,10.20
2022-09-15T03:22:57.465Z,12.20
2022-09-15T03:24:06.058Z,8.50
2022-09-15T03:25:12.218Z,10.10
2022-09-15T03:26:20.747Z,8.60
2022-09-15T03:27:26.714Z,7.40
2022-09-15T03:28:35.749Z,9.30
2022-09-15T03:29:42.067Z,11.50
2022-09-15T03:30:49.703Z,10.30
2022-09-15T03:31:57.268Z,8.60
2022-09-15T03:33:03.282Z,11.70
2022-09-15T03:34:09.536Z,11.70
2022-09-15T03:35:15.120Z,8.60
2022-09-15T03:36:23.968Z,10.80
2022-09-15T03:37:30.028Z,10.60
2022-09-15T03:38:36.346Z,11.50
2022-09-15T03:39:42.565Z,11.40
2022-09-15T03:41:05.079Z,11.70
2022-09-15T03:42:11.584Z,11.10
2022-09-15T03:43:18.796Z,9.10
2022-09-15T03:44:25.175Z,11.90
2022-09-15T03:45:31.506Z,8.70
2022-09-15T03:46:40.520Z,12.70
2022-09-15T03:47:47.273Z,9.90
2022-09-15T03:48:54.388Z,8.90
2022-09-15T03:50:00.870Z,8.00
2022-09-15T03:51:07.315Z,11.20
2022-09-15T03:52:14.091Z,7.90
2022-09-15T03:53:21.129Z,12.80
2022-09-15T03:54:28.764Z,10.60
2022-09-15T03:55:35.443Z,8.70
2022-09-15T03:56:42.465Z,12.10
2022-09-15T03:57:48.844Z,10.40
2022-09-15T03:58:54.983Z,9.10
2022-09-15T04:00:01.906Z,9.20
2022-09-15T04:01:10.636Z,8.70
2022-09-15T04:02:18.742Z,9.90
2022-09-15T04:03:29.684Z,12.10
2022-09-15T04:04:37.528Z,10.90
2022-09-15T04:05:43.238Z,8.60
2022-09-15T04:06:50.453Z,11.20
2022-09-15T04:07:56.723Z,11.20
2022-09-15T04:09:03.678Z,13.50
2022-09-15T04:10:11.162Z,12.70
2022-09-15T04:11:17.932Z,8.50
2022-09-15T04:12:25.312Z,12.50
2022-09-15T04:13:31.512Z,9.20
2022-09-15T04:14:37.237Z,11.40
2022-09-15T04:15:44.194Z,12.40
2022-09-15T04:16:50.708Z,9.80
2022-09-15T04:17:58.852Z,9.70
2022-09-15T04:19:06.153Z,11.10
2022-09-15T04:20:12.641Z,8.90
2022-09-15T04:21:21.537Z,9.70
2022-09-15T04:22:28.269Z,11.60
2022-09-15T04:23:35.719Z,9.30
2022-09-15T04:24:42.093Z,8.80
2022-09-15T04:26:09.462Z,11.30
2022-09-15T04:27:16.988Z,10.30
2022-09-15T04:28:26.666Z,12.30
2022-09-15T04:29:33.641Z,13.60
2022-09-15T04:30:40.085Z,11.70
2022-09-15T04:31:49.208Z,11.60
2022-09-15T04:32:55.659Z,11.40
2022-09-15T04:34:01.816Z,11.80
2022-09-15T04:35:08.807Z,12.00
2022-09-15T04:36:21.110Z,11.20
2022-09-15T04:37:28.892Z,14.40
2022-09-15T04:38:36.690Z,11.00
2022-09-15T04:39:43.244Z,10.70
2022-09-15T04:40:52.225Z,10.90
2022-09-15T04:42:00.876Z,10.70
2022-09-15T04:43:07.074Z,12.50
2022-09-15T04:44:14.360Z,10.20
2022-09-15T04:45:20.749Z,13.00
2022-09-15T04:46:26.854Z,11.80
2022-09-15T04:47:34.318Z,12.30
2022-09-15T04:48:40.870Z,18.60
2022-09-15T04:49:47.634Z,11.40
2022-09-15T04:50:53.832Z,11.60
2022-09-15T04:51:59.850Z,10.80
2022-09-15T04:53:05.874Z,10.90
2022-09-15T04:54:13.285Z,13.40
2022-09-15T04:55:19.411Z,13.60
2022-09-15T04:56:26.402Z,8.10
2022-09-15T04:57:32.434Z,12.10
2022-09-15T04:58:40.692Z,11.90
2022-09-15T04:59:48.250Z,10.80
2022-09-15T05:00:54.402Z,10.90
2022-09-15T05:02:00.462Z,11.90
2022-09-15T05:03:07.367Z,11.50
2022-09-15T05:04:15.244Z,12.30
2022-09-15T05:05:22.440Z,13.20
2022-09-15T05:06:29.839Z,13.00
2022-09-15T05:07:38.687Z,11.00
2022-09-15T05:08:49.864Z,13.30
2022-09-15T05:09:56.679Z,11.00
2022-09-15T05:11:04.566Z,11.40
2022-09-15T05:12:11.666Z,11.40
2022-09-15T05:13:18.884Z,8.90
2022-09-15T05:14:25.195Z,13.30
2022-09-15T05:15:31.236Z,11.10
2022-09-15T05:16:37.814Z,10.00
2022-09-15T05:17:43.851Z,10.60
2022-09-15T05:18:50.831Z,11.90
2022-09-15T05:19:57.064Z,15.00
2022-09-15T05:21:03.507Z,12.30
2022-09-15T05:22:12.469Z,14.40
2022-09-15T05:23:19.425Z,10.40
2022-09-15T05:24:26.865Z,13.10
2022-09-15T05:25:34.193Z,11.50
2022-09-15T05:26:40.307Z,10.90
2022-09-15T05:27:47.654Z,10.00
2022-09-15T05:28:54.390Z,11.50
2022-09-15T05:30:23.888Z,12.60
2022-09-15T05:31:35.221Z,11.10
2022-09-15T05:32:43.765Z,10.10
2022-09-15T05:33:50.414Z,12.30
2022-09-15T05:34:57.454Z,13.40
2022-09-15T05:36:04.761Z,13.10
2022-09-15T05:37:11.699Z,15.30
2022-09-15T05:38:18.694Z,11.10
2022-09-15T05:39:25.712Z,12.10
2022-09-15T05:40:31.917Z,15.40
2022-09-15T05:41:38.011Z,14.30
2022-09-15T05:42:43.915Z,12.10
2022-09-15T05:43:50.602Z,13.70
2022-09-15T05:44:58.269Z,10.10
2022-09-15T05:46:04.432Z,9.90
2022-09-15T05:47:11.066Z,10.50
2022-09-15T05:48:18.457Z,12.20
2022-09-15T05:49:25.414Z,11.50
2022-09-15T05:50:33.998Z,12.20
2022-09-15T05:51:40.284Z,13.40
2022-09-15T05:52:53.072Z,13.80
2022-09-15T05:53:59.753Z,16.00
2022-09-15T05:55:06.036Z,12.30
2022-09-15T05:56:15.787Z,14.00
2022-09-15T05:57:22.725Z,13.60
2022-09-15T05:58:31.639Z,10.50
2022-09-15T05:59:39.869Z,13.60
2022-09-15T06:00:48.461Z,11.60
2022-09-15T06:01:54.903Z,14.80
2022-09-15T06:03:01.948Z,13.00
2022-09-15T06:04:09.216Z,14.60
2022-09-15T06:05:15.426Z,19.70
2022-09-15T06:06:22.970Z,11.60
2022-09-15T06:07:29.020Z,11.20
2022-09-15T06:08:47.996Z,11.70
2022-09-15T06:09:56.494Z,13.20
2022-09-15T06:11:13.142Z,13.20
2022-09-15T06:12:24.849Z,13.60
2022-09-15T06:13:31.030Z,12.40
2022-09-15T06:14:37.855Z,13.70
2022-09-15T06:15:44.705Z,13.10
2022-09-15T06:16:53.785Z,12.60
2022-09-15T06:18:00.777Z,16.00
2022-09-15T06:19:10.110Z,15.90
2022-09-15T06:20:17.519Z,10.10
2022-09-15T06:21:27.446Z,12.80
2022-09-15T06:22:34.193Z,16.10
2022-09-15T06:23:40.925Z,11.50
2022-09-15T06:24:47.548Z,13.30
2022-09-15T06:25:54.178Z,12.80
2022-09-15T06:27:01.258Z,10.60
2022-09-15T06:28:07.130Z,17.60
2022-09-15T06:29:16.272Z,12.70
2022-09-15T06:30:22.318Z,14.60
2022-09-15T06:31:29.216Z,13.40
2022-09-15T06:32:36.983Z,16.10
2022-09-15T06:33:45.613Z,13.10
2022-09-15T06:34:52.184Z,13.60
2022-09-15T06:35:58.245Z,14.70
2022-09-15T06:37:04.427Z,11.60
2022-09-15T06:38:11.597Z,14.50
2022-09-15T06:39:19.407Z,13.50
2022-09-15T06:40:29.310Z,13.50
2022-09-15T06:42:00.698Z,11.20
2022-09-15T06:43:10.829Z,12.00
2022-09-15T06:44:18.205Z,11.10
2022-09-15T06:45:26.360Z,12.60
2022-09-15T06:46:33.857Z,13.60
2022-09-15T06:47:41.899Z,13.60
2022-09-15T06:48:52.164Z,11.80
2022-09-15T06:50:00.254Z,12.20
2022-09-15T06:51:09.481Z,12.60
2022-09-15T06:52:15.590Z,10.10
2022-09-15T06:53:22.605Z,12.70
2022-09-15T06:54:30.772Z,12.30
2022-09-15T06:55:36.913Z,15.30
2022-09-15T06:56:44.723Z,10.80
2022-09-15T06:57:51.691Z,9.00
2022-09-15T06:59:00.644Z,11.50
2022-09-15T07:00:15.051Z,11.60
2022-09-15T07:01:28.718Z,12.80
2022-09-15T07:02:34.713Z,14.60
2022-09-15T07:03:43.764Z,14.10
2022-09-15T07:04:52.484Z,13.60
2022-09-15T07:05:58.266Z,11.30
2022-09-15T07:07:07.158Z,13.50
2022-09-15T07:08:13.695Z,12.90
2022-09-15T07:09:20.793Z,12.30
2022-09-15T07:10:28.367Z,14.70
2022-09-15T07:11:34.080Z,11.60
2022-09-15T07:12:43.128Z,16.00
2022-09-15T07:13:51.971Z,11.60
2022-09-15T07:14:58.592Z,15.60
2022-09-15T07:16:04.670Z,14.60
2022-09-15T07:17:11.367Z,12.70
2022-09-15T07:18:18.624Z,17.20
2022-09-15T07:19:26.122Z,13.80
2022-09-15T07:20:32.528Z,11.30
2022-09-15T07:21:38.579Z,11.50
2022-09-15T07:22:45.038Z,12.00
2022-09-15T07:23:51.009Z,11.10
2022-09-15T07:24:57.143Z,13.30
2022-09-15T07:26:22.661Z,10.50
2022-09-15T07:27:32.631Z,12.40
2022-09-15T07:28:42.921Z,11.70
2022-09-15T07:29:49.358Z,11.60
2022-09-15T07:30:55.924Z,13.30
2022-09-15T07:32:01.725Z,17.30
2022-09-15T07:33:08.871Z,13.30
2022-09-15T07:34:15.953Z,12.80
2022-09-15T07:35:22.549Z,15.40
2022-09-15T07:36:28.486Z,18.20
2022-09-15T07:37:34.254Z,15.50
2022-09-15T07:38:48.569Z,15.40
2022-09-15T07:39:54.872Z,12.60
2022-09-15T07:41:10.698Z,13.20
2022-09-15T07:42:16.809Z,16.00
2022-09-15T07:43:23.083Z,15.00
2022-09-15T07:44:29.426Z,12.60
2022-09-15T07:45:37.414Z,13.20
2022-09-15T07:46:45.290Z,16.10
2022-09-15T07:47:54.600Z,13.50
2022-09-15T07:49:01.494Z,14.50
2022-09-15T07:50:07.969Z,12.10
2022-09-15T07:51:15.834Z,13.20
2022-09-15T07:52:21.930Z,16.70
2022-09-15T07:53:31.321Z,12.10
2022-09-15T07:54:38.863Z,18.50
2022-09-15T07:55:44.630Z,15.10
2022-09-15T07:56:52.102Z,13.60
2022-09-15T07:58:05.126Z,12.10
2022-09-15T07:59:11.425Z,16.70
2022-09-15T08:00:18.728Z,15.40
2022-09-15T08:01:24.968Z,16.20
2022-09-15T08:02:30.946Z,16.20
2022-09-15T08:03:42.052Z,14.30
2022-09-15T08:04:49.345Z,16.80
2022-09-15T08:06:02.229Z,18.90
2022-09-15T08:07:08.158Z,17.00
2022-09-15T08:08:14.095Z,14.30
2022-09-15T08:09:22.005Z,15.40
2022-09-15T08:10:27.733Z,13.50
2022-09-15T08:11:35.357Z,13.80
2022-09-15T08:12:41.633Z,15.60
2022-09-15T08:13:49.985Z,13.90
2022-09-15T08:14:57.946Z,15.50
2022-09-15T08:16:10.454Z,14.10
2022-09-15T08:17:16.523Z,13.30
2022-09-15T08:18:23.569Z,13.80
2022-09-15T08:19:33.102Z,13.50
2022-09-15T08:20:42.756Z,13.60
2022-09-15T08:21:48.787Z,15.60
2022-09-15T08:22:54.873Z,14.50
2022-09-15T08:24:01.715Z,12.30
2022-09-15T08:25:08.204Z,13.50
2022-09-15T08:26:14.740Z,14.50
2022-09-15T08:27:21.361Z,13.50
2022-09-15T08:28:27.255Z,15.10
2022-09-15T08:29:33.382Z,12.10
2022-09-15T08:30:40.544Z,13.10
2022-09-15T08:31:47.041Z,12.20
2022-09-15T08:32:53.170Z,16.50
2022-09-15T08:34:04.466Z,15.70
2022-09-15T08:35:13.347Z,16.70
2022-09-15T08:36:19.220Z,16.10
2022-09-15T08:37:25.423Z,16.30
2022-09-15T08:38:31.057Z,14.80
2022-09-15T08:39:37.204Z,13.80
2022-09-15T08:40:44.957Z,15.30
2022-09-15T08:41:54.159Z,15.90
2022-09-15T08:43:00.859Z,17.20
2022-09-15T08:44:24.897Z,13.70
2022-09-15T08:45:32.323Z,15.40
2022-09-15T08:46:51.058Z,14.30
2022-09-15T08:48:00.438Z,14.80
2022-09-15T08:49:50.910Z,16.00
2022-09-15T08:51:01.313Z,15.00
2022-09-15T08:52:08.923Z,16.20
2022-09-15T08:53:19.247Z,13.60
2022-09-15T08:54:27.487Z,14.70
2022-09-15T08:55:55.686Z,15.70
2022-09-15T08:57:03.350Z,16.50
2022-09-15T08:58:33.395Z,16.00
2022-09-15T08:59:41.568Z,14.30
2022-09-15T09:00:54.410Z,15.40
2022-09-15T09:02:32.018Z,16.30
2022-09-15T09:03:44.695Z,16.60
2022-09-15T09:05:11.637Z,14.20
2022-09-15T09:06:49.449Z,13.80
2022-09-15T09:08:13.607Z,16.10
2022-09-15T09:09:55.922Z,17.30
2022-09-15T09:11:06.577Z,17.40
2022-09-15T09:12:33.553Z,15.60
2022-09-15T09:14:06.880Z,17.00
2022-09-15T09:15:37.010Z,11.10
2022-09-15T09:16:52.418Z,14.10
2022-09-15T09:18:36.269Z,12.70
2022-09-15T09:20:07.225Z,15.60
2022-09-15T09:21:34.838Z,13.60
2022-09-15T09:22:41.737Z,12.70
2022-09-15T09:24:07.006Z,15.20
2022-09-15T09:25:26.629Z,14.60
2022-09-15T09:26:36.613Z,14.10
2022-09-15T09:27:44.167Z,14.40
2022-09-15T09:29:02.565Z,12.20
2022-09-15T09:30:20.519Z,15.20
2022-09-15T09:31:29.393Z,13.90
2022-09-15T09:33:08.633Z,14.20
2022-09-15T09:34:14.233Z,15.80
2022-09-15T09:35:45.847Z,15.40
2022-09-15T09:37:15.087Z,16.70
2022-09-15T09:38:40.204Z,13.10
2022-09-15T09:39:49.606Z,13.40
2022-09-15T09:40:58.669Z,14.50
2022-09-15T09:42:15.204Z,18.30
2022-09-15T09:43:21.795Z,13.00
2022-09-15T09:44:32.251Z,13.10
2022-09-15T09:45:39.747Z,13.10
2022-09-15T09:46:47.175Z,12.90
2022-09-15T09:47:58.327Z,14.50
2022-09-15T09:49:24.194Z,14.60
2022-09-15T09:50:40.305Z,14.60
2022-09-15T09:52:03.848Z,17.20
2022-09-15T09:53:34.679Z,13.30
2022-09-15T09:54:40.452Z,13.30
2022-09-15T09:55:49.348Z,13.40
2022-09-15T09:56:57.064Z,13.90
2022-09-15T09:58:32.306Z,15.50
2022-09-15T09:59:56.756Z,19.80
2022-09-15T10:01:02.919Z,12.60
2022-09-15T10:02:17.670Z,14.80
2022-09-15T10:03:29.256Z,13.70
2022-09-15T10:04:41.005Z,15.00
2022-09-15T10:06:21.794Z,14.40
2022-09-15T10:07:28.242Z,16.20
2022-09-15T10:08:34.385Z,13.60
2022-09-15T10:09:51.129Z,14.70
2022-09-15T10:11:00.961Z,15.00
2022-09-15T10:12:17.583Z,11.10
2022-09-15T10:13:25.783Z,15.80
2022-09-15T10:14:42.128Z,15.80
2022-09-15T10:15:54.767Z,13.90
2022-09-15T10:17:38.338Z,12.80
2022-09-15T10:18:44.767Z,15.40
2022-09-15T10:19:57.625Z,20.70
2022-09-15T10:21:04.437Z,13.70
2022-09-15T10:22:11.506Z,16.30
2022-09-15T10:23:29.433Z,14.20
2022-09-15T10:24:40.582Z,13.70
2022-09-15T10:25:59.024Z,11.20
2022-09-15T10:27:20.751Z,11.20
2022-09-15T10:28:28.513Z,13.70
2022-09-15T10:29:40.362Z,13.70
2022-09-15T10:31:05.410Z,12.90
2022-09-15T10:32:29.388Z,14.00
2022-09-15T10:33:40.078Z,13.10
2022-09-15T10:34:46.164Z,11.90
2022-09-15T10:35:52.297Z,14.20
2022-09-15T10:37:15.214Z,12.10
2022-09-15T10:38:31.246Z,13.40
2022-09-15T10:39:50.758Z,10.50
2022-09-15T10:41:20.442Z,10.30
2022-09-15T10:42:51.269Z,13.40
2022-09-15T10:44:42.763Z,11.90
2022-09-15T10:45:57.026Z,13.70
2022-09-15T10:47:18.536Z,14.80
2022-09-15T10:48:45.267Z,12.90
2022-09-15T10:50:16.139Z,15.30
2022-09-15T10:51:47.330Z,12.50
2022-09-15T10:53:15.268Z,14.20
2022-09-15T10:54:53.143Z,12.40
2022-09-15T10:56:09.975Z,18.30
2022-09-15T10:57:53.018Z,13.20
2022-09-15T10:59:44.229Z,13.00
2022-09-15T11:01:27.240Z,16.00
2022-09-15T11:03:26.837Z,14.70
2022-09-15T11:05:00.396Z,13.90
2022-09-15T11:06:18.361Z,13.00
2022-09-15T11:07:47.445Z,14.20
2022-09-15T11:08:56.425Z,16.00
2022-09-15T11:10:26.882Z,13.10
2022-09-15T11:12:02.932Z,15.20
2022-09-15T11:13:53.389Z,14.10
2022-09-15T11:15:16.208Z,12.50
2022-09-15T11:16:45.550Z,14.30
2022-09-15T11:17:57.689Z,12.00
2022-09-15T11:19:46.301Z,14.90
2022-09-15T11:21:10.364Z,12.70
2022-09-15T11:22:20.060Z,13.60
2022-09-15T11:23:43.874Z,14.70
2022-09-15T11:24:57.804Z,14.10
2022-09-15T11:26:09.100Z,15.30
2022-09-15T11:27:21.167Z,12.70
2022-09-15T11:28:42.981Z,14.00
2022-09-15T11:30:26.842Z,13.10
2022-09-15T11:31:40.578Z,16.10
2022-09-15T11:33:05.061Z,13.50
2022-09-15T11:34:50.095Z,14.90
2022-09-15T11:36:29.867Z,16.70
2022-09-15T11:37:44.929Z,12.40
2022-09-15T11:39:05.531Z,13.30
2022-09-15T11:40:46.037Z,12.50
2022-09-15T11:42:17.789Z,12.80
2022-09-15T11:43:28.329Z,13.30
2022-09-15T11:44:34.665Z,13.50
2022-09-15T11:45:45.349Z,12.00
2022-09-15T11:47:36.863Z,20.30
2022-09-15T11:49:08.826Z,11.20
2022-09-15T11:50:18.698Z,18.10
2022-09-15T11:51:25.578Z,12.40
2022-09-15T11:52:55.261Z,12.50
2022-09-15T11:54:12.062Z,11.60
2022-09-15T11:55:44.063Z,10.90
2022-09-15T11:56:51.354Z,10.80
2022-09-15T11:58:22.380Z,11.70
2022-09-15T11:59:51.041Z,13.10
2022-09-15T12:01:55.567Z,11.90
2022-09-15T12:03:18.543Z,10.80
2022-09-15T12:04:30.489Z,10.40
2022-09-15T12:05:42.795Z,14.20
2022-09-15T12:06:53.262Z,21.30
2022-09-15T12:08:05.581Z,13.10
2022-09-15T12:09:15.479Z,14.50
2022-09-15T12:10:27.114Z,11.10
2022-09-15T12:11:37.424Z,12.20
2022-09-15T12:12:44.075Z,12.20
2022-09-15T12:13:50.188Z,13.20
2022-09-15T12:14:56.435Z,11.10
2022-09-15T12:16:03.026Z,11.00
2022-09-15T12:17:11.797Z,11.40
2022-09-15T12:18:46.991Z,10.00
2022-09-15T12:20:12.315Z,12.40
2022-09-15T12:21:29.057Z,13.20
2022-09-15T12:22:47.704Z,10.40
2022-09-15T12:23:57.635Z,12.40
2022-09-15T12:25:24.157Z,13.30
2022-09-15T12:26:30.506Z,12.50
2022-09-15T12:27:36.378Z,14.40
2022-09-15T12:28:43.897Z,9.90
2022-09-15T12:29:57.195Z,17.10
2022-09-15T12:31:31.841Z,13.00
2022-09-15T12:32:38.806Z,14.60
2022-09-15T12:33:44.821Z,13.30
2022-09-15T12:35:18.505Z,11.80
2022-09-15T12:36:43.192Z,17.00
2022-09-15T12:37:59.263Z,15.00
2022-09-15T12:39:26.682Z,14.40
2022-09-15T12:40:36.473Z,13.20
2022-09-15T12:41:48.600Z,15.30
2022-09-15T12:42:56.474Z,16.00
2022-09-15T12:44:21.999Z,14.70
2022-09-15T12:45:32.350Z,12.50
2022-09-15T12:46:38.278Z,14.20
2022-09-15T12:47:55.206Z,18.70
2022-09-15T12:49:03.661Z,13.60
2022-09-15T12:50:17.402Z,12.70
2022-09-15T12:51:26.480Z,14.10
2022-09-15T12:52:34.473Z,11.20
2022-09-15T12:53:47.719Z,12.40
2022-09-15T12:54:59.612Z,17.70
2022-09-15T12:56:10.927Z,15.70
2022-09-15T12:57:25.479Z,14.90
2022-09-15T12:58:48.670Z,14.00
2022-09-15T13:00:24.219Z,13.20
2022-09-15T13:01:34.087Z,15.90
2022-09-15T13:02:53.542Z,14.10
2022-09-15T13:03:59.924Z,15.50
2022-09-15T13:05:08.949Z,16.80
2022-09-15T13:06:38.430Z,14.10
2022-09-15T13:08:08.869Z,14.90
2022-09-15T13:09:56.818Z,16.00
2022-09-15T13:11:07.269Z,18.40
2022-09-15T13:12:16.967Z,17.00
2022-09-15T13:13:31.232Z,12.60
2022-09-15T13:14:47.089Z,12.30
2022-09-15T13:15:55.960Z,13.10
2022-09-15T13:17:20.346Z,14.50
2022-09-15T13:18:27.672Z,11.90
2022-09-15T13:19:37.068Z,12.70
2022-09-15T13:20:50.629Z,10.50
2022-09-15T13:22:20.168Z,15.60
2022-09-15T13:23:29.581Z,14.70
2022-09-15T13:25:26.840Z,14.60
2022-09-15T13:26:33.894Z,15.30
2022-09-15T13:27:55.278Z,12.70
2022-09-15T13:29:02.786Z,12.30
2022-09-15T13:30:38.765Z,11.30
2022-09-15T13:31:58.648Z,13.10
2022-09-15T13:35:03.082Z,13.10
2022-09-15T13:35:26.648Z,13.70
2022-09-15T13:38:44.032Z,13.60
2022-09-15T13:40:23.363Z,16.10
2022-09-15T13:42:26.610Z,13.40
2022-09-15T13:44:08.903Z,15.00
2022-09-15T13:45:34.103Z,16.60
2022-09-15T13:47:26.946Z,16.10
2022-09-15T13:48:41.233Z,13.80
2022-09-15T13:50:26.662Z,20.00
2022-09-15T13:51:32.950Z,17.50
2022-09-15T13:53:15.363Z,15.60
2022-09-15T13:54:21.457Z,14.50
2022-09-15T13:55:28.583Z,15.50
2022-09-15T13:56:39.828Z,15.60
2022-09-15T13:59:28.234Z,12.50
2022-09-15T14:00:59.858Z,14.20
2022-09-15T14:02:09.631Z,15.80
2022-09-15T14:03:17.953Z,11.80
2022-09-15T14:04:30.379Z,15.40
2022-09-15T14:05:36.526Z,17.50
2022-09-15T14:06:46.938Z,11.90
2022-09-15T14:07:55.763Z,15.00
2022-09-15T14:09:30.739Z,17.00
2022-09-15T14:10:45.827Z,14.30
2022-09-15T14:11:56.308Z,15.70
2022-09-15T14:13:04.115Z,17.40
2022-09-15T14:14:30.632Z,15.70
2022-09-15T14:15:37.956Z,17.60
2022-09-15T14:16:51.476Z,20.20
2022-09-15T14:17:59.806Z,15.30
2022-09-15T14:19:43.293Z,14.70
2022-09-15T14:21:05.667Z,14.20
2022-09-15T14:22:26.702Z,13.70
2022-09-15T14:23:33.306Z,13.50
2022-09-15T14:24:45.046Z,12.80
2022-09-15T14:25:51.738Z,12.20
2022-09-15T14:27:01.257Z,13.20
2022-09-15T14:28:19.437Z,14.80
2022-09-15T14:29:26.579Z,11.20
2022-09-15T14:30:36.802Z,14.50
2022-09-15T14:31:43.748Z,12.80
2022-09-15T14:32:52.837Z,12.50
2022-09-15T14:34:00.114Z,13.40
2022-09-15T14:35:08.774Z,12.60
2022-09-15T14:36:16.249Z,15.00
2022-09-15T14:37:24.469Z,15.30
2022-09-15T14:38:30.777Z,14.80
2022-09-15T14:39:38.514Z,11.10
2022-09-15T14:40:44.777Z,17.40
2022-09-15T14:41:51.216Z,12.40
2022-09-15T14:42:57.741Z,12.70
2022-09-15T14:45:52.921Z,12.90
2022-09-15T14:45:57.546Z,16.60
2022-09-15T14:47:40.917Z,13.40
2022-09-15T14:48:47.063Z,14.90
2022-09-15T14:50:10.574Z,14.50
2022-09-15T14:51:26.448Z,12.60
2022-09-15T14:52:37.434Z,13.90
2022-09-15T14:53:44.638Z,18.70
2022-09-15T14:54:51.028Z,12.80
2022-09-15T14:56:08.170Z,12.90
2022-09-15T14:57:16.047Z,13.70
2022-09-15T14:58:36.869Z,13.80
2022-09-15T14:59:54.167Z,13.00
2022-09-15T15:01:08.481Z,13.80
2022-09-15T15:02:36.968Z,12.40
2022-09-15T15:03:50.847Z,14.10
2022-09-15T15:05:34.146Z,14.80
2022-09-15T15:07:08.789Z,16.20
2022-09-15T15:08:24.656Z,15.50
2022-09-15T15:09:47.772Z,14.50
2022-09-15T15:10:55.239Z,14.30
2022-09-15T15:12:06.760Z,12.70
2022-09-15T15:13:17.449Z,12.40
2022-09-15T15:14:24.236Z,15.40
2022-09-15T15:15:30.477Z,15.00
2022-09-15T15:16:39.708Z,14.70
2022-09-15T15:17:56.455Z,14.40
2022-09-15T15:19:02.569Z,11.50
2022-09-15T15:20:11.398Z,13.20
2022-09-15T15:21:40.514Z,14.60
2022-09-15T15:22:47.062Z,11.80
2022-09-15T15:23:53.585Z,14.10
2022-09-15T15:24:59.722Z,12.80
2022-09-15T15:26:36.979Z,14.00
2022-09-15T15:27:43.291Z,13.20
2022-09-15T15:28:49.511Z,13.50
2022-09-15T15:29:55.805Z,15.60
2022-09-15T15:31:21.564Z,14.40
2022-09-15T15:32:27.466Z,17.30
2022-09-15T15:33:33.764Z,12.90
2022-09-15T15:34:40.453Z,14.60
2022-09-15T15:35:46.164Z,14.00
2022-09-15T15:36:53.429Z,16.70
2022-09-15T15:38:17.346Z,13.00
2022-09-15T15:39:28.335Z,14.20
2022-09-15T15:40:34.817Z,15.00
2022-09-15T15:43:03.838Z,15.10
2022-09-15T15:44:30.261Z,18.80
2022-09-15T15:45:37.394Z,15.50
2022-09-15T15:47:05.034Z,13.00
2022-09-15T15:48:10.776Z,11.60
2022-09-15T15:49:16.980Z,14.50
2022-09-15T15:50:25.874Z,14.00
2022-09-15T15:51:33.270Z,15.00
2022-09-15T15:52:42.118Z,14.10
2022-09-15T15:53:49.269Z,12.40
2022-09-15T15:54:55.317Z,16.00
2022-09-15T15:56:01.934Z,13.70
2022-09-15T15:57:40.440Z,16.30
2022-09-15T15:58:46.756Z,13.40
2022-09-15T15:59:57.560Z,13.80
2022-09-15T16:01:04.755Z,12.90
2022-09-15T16:02:11.923Z,13.50
2022-09-15T16:03:18.071Z,11.20
2022-09-15T16:04:25.678Z,13.70
2022-09-15T16:05:34.048Z,15.00
2022-09-15T16:06:42.939Z,16.60
2022-09-15T16:07:53.471Z,15.50
2022-09-15T16:09:03.984Z,14.50
2022-09-15T16:10:10.155Z,10.10
2022-09-15T16:11:16.718Z,14.60
2022-09-15T16:12:22.697Z,13.40
2022-09-15T16:13:28.563Z,13.30
2022-09-15T16:14:35.893Z,14.80
2022-09-15T16:15:44.785Z,14.00
2022-09-15T16:16:54.469Z,15.40